sensor_id;sensor_type;location;lat;lon;timestamp;P1;durP1;ratioP1;P2;durP2;ratioP2
32697;SDS011;19087;51.062;3.754;2023-05-14T00:02:01;0.35;;;0.35;;
32697;SDS011;19087;51.062;3.754;2023-05-14T00:04:28;0.20;;;0.20;;
32697;SDS011;19087;51.062;3.754;2023-05-14T00:06:57;0.20;;;0.20;;
32697;SDS011;19087;51.062;3.754;2023-05-14T00:09:23;0.30;;;0.30;;
32697;SDS011;19087;51.062;3.754;2023-05-14T00:11:50;0.30;;;0.30;;
32697;SDS011;19087;51.062;3.754;2023-05-14T00:14:25;0.30;;;0.30;;
32697;SDS011;19087;51.062;3.754;2023-05-14T00:16:51;0.20;;;0.20;;
32697;SDS011;19087;51.062;3.754;2023-05-14T00:19:16;0.30;;;0.30;;
32697;SDS011;19087;51.062;3.754;2023-05-14T00:21:42;0.30;;;0.30;;
32697;SDS011;19087;51.062;3.754;2023-05-14T00:24:09;0.20;;;0.20;;
32697;SDS011;19087;51.062;3.754;2023-05-14T00:26:41;0.22;;;0.22;;
32697;SDS011;19087;51.062;3.754;2023-05-14T00:29:06;0.25;;;0.25;;
32697;SDS011;19087;51.062;3.754;2023-05-14T00:31:33;0.30;;;0.30;;
32697;SDS011;19087;51.062;3.754;2023-05-14T00:34:01;0.30;;;0.30;;
32697;SDS011;19087;51.062;3.754;2023-05-14T00:36:27;0.30;;;0.30;;
32697;SDS011;19087;51.062;3.754;2023-05-14T00:38:59;0.30;;;0.30;;
32697;SDS011;19087;51.062;3.754;2023-05-14T00:41:25;0.30;;;0.30;;
32697;SDS011;19087;51.062;3.754;2023-05-14T00:43:51;0.30;;;0.30;;
32697;SDS011;19087;51.062;3.754;2023-05-14T00:46:17;0.30;;;0.30;;
32697;SDS011;19087;51.062;3.754;2023-05-14T00:48:43;0.30;;;0.30;;
32697;SDS011;19087;51.062;3.754;2023-05-14T00:51:09;0.30;;;0.30;;
32697;SDS011;19087;51.062;3.754;2023-05-14T00:53:35;0.30;;;0.30;;
32697;SDS011;19087;51.062;3.754;2023-05-14T00:56:01;0.30;;;0.30;;
32697;SDS011;19087;51.062;3.754;2023-05-14T00:58:27;0.30;;;0.30;;
32697;SDS011;19087;51.062;3.754;2023-05-14T01:00:54;0.38;;;0.38;;
32697;SDS011;19087;51.062;3.754;2023-05-14T01:03:21;0.30;;;0.30;;
32697;SDS011;19087;51.062;3.754;2023-05-14T01:08:35;0.20;;;0.20;;
32697;SDS011;19087;51.062;3.754;2023-05-14T01:11:25;0.30;;;0.30;;
32697;SDS011;19087;51.062;3.754;2023-05-14T01:16:58;0.30;;;0.30;;
32697;SDS011;19087;51.062;3.754;2023-05-14T01:22:01;0.33;;;0.33;;
32697;SDS011;19087;51.062;3.754;2023-05-14T01:24:27;0.20;;;0.20;;
32697;SDS011;19087;51.062;3.754;2023-05-14T01:26:55;0.30;;;0.30;;
32697;SDS011;19087;51.062;3.754;2023-05-14T01:29:28;0.30;;;0.30;;
32697;SDS011;19087;51.062;3.754;2023-05-14T01:31:56;0.30;;;0.30;;
32697;SDS011;19087;51.062;3.754;2023-05-14T01:34:25;0.30;;;0.30;;
32697;SDS011;19087;51.062;3.754;2023-05-14T01:36:54;0.30;;;0.30;;
32697;SDS011;19087;51.062;3.754;2023-05-14T01:39:22;0.30;;;0.30;;
32697;SDS011;19087;51.062;3.754;2023-05-14T01:41:49;0.25;;;0.25;;
32697;SDS011;19087;51.062;3.754;2023-05-14T01:44:16;0.20;;;0.20;;
32697;SDS011;19087;51.062;3.754;2023-05-14T01:46:43;0.28;;;0.28;;
32697;SDS011;19087;51.062;3.754;2023-05-14T01:49:09;0.30;;;0.30;;
32697;SDS011;19087;51.062;3.754;2023-05-14T01:51:34;0.30;;;0.30;;
32697;SDS011;19087;51.062;3.754;2023-05-14T01:54:00;0.22;;;0.22;;
32697;SDS011;19087;51.062;3.754;2023-05-14T01:56:26;0.30;;;0.30;;
32697;SDS011;19087;51.062;3.754;2023-05-14T01:58:51;0.30;;;0.30;;
32697;SDS011;19087;51.062;3.754;2023-05-14T02:01:17;0.30;;;0.30;;
32697;SDS011;19087;51.062;3.754;2023-05-14T02:03:43;0.32;;;0.32;;
32697;SDS011;19087;51.062;3.754;2023-05-14T02:06:09;0.30;;;0.30;;
32697;SDS011;19087;51.062;3.754;2023-05-14T02:08:35;0.30;;;0.30;;
32697;SDS011;19087;51.062;3.754;2023-05-14T02:11:00;0.30;;;0.30;;
32697;SDS011;19087;51.062;3.754;2023-05-14T02:13:26;0.30;;;0.30;;
32697;SDS011;19087;51.062;3.754;2023-05-14T02:15:52;0.28;;;0.28;;
32697;SDS011;19087;51.062;3.754;2023-05-14T02:18:18;0.30;;;0.30;;
32697;SDS011;19087;51.062;3.754;2023-05-14T02:20:43;0.30;;;0.30;;
32697;SDS011;19087;51.062;3.754;2023-05-14T02:23:10;0.30;;;0.30;;
32697;SDS011;19087;51.062;3.754;2023-05-14T02:25:36;0.30;;;0.30;;
32697;SDS011;19087;51.062;3.754;2023-05-14T02:28:02;0.22;;;0.22;;
32697;SDS011;19087;51.062;3.754;2023-05-14T02:30:28;0.30;;;0.30;;
32697;SDS011;19087;51.062;3.754;2023-05-14T02:32:55;0.30;;;0.30;;
32697;SDS011;19087;51.062;3.754;2023-05-14T02:35:21;0.30;;;0.30;;
32697;SDS011;19087;51.062;3.754;2023-05-14T02:37:48;0.22;;;0.22;;
32697;SDS011;19087;51.062;3.754;2023-05-14T02:40:14;0.30;;;0.30;;
32697;SDS011;19087;51.062;3.754;2023-05-14T02:42:40;0.30;;;0.30;;
32697;SDS011;19087;51.062;3.754;2023-05-14T02:45:07;0.30;;;0.30;;
32697;SDS011;19087;51.062;3.754;2023-05-14T02:47:33;0.30;;;0.30;;
32697;SDS011;19087;51.062;3.754;2023-05-14T02:50:00;0.30;;;0.30;;
32697;SDS011;19087;51.062;3.754;2023-05-14T02:52:26;0.30;;;0.30;;
32697;SDS011;19087;51.062;3.754;2023-05-14T02:54:51;0.20;;;0.20;;
32697;SDS011;19087;51.062;3.754;2023-05-14T02:57:17;0.30;;;0.30;;
32697;SDS011;19087;51.062;3.754;2023-05-14T02:59:43;0.30;;;0.30;;
32697;SDS011;19087;51.062;3.754;2023-05-14T03:02:10;0.25;;;0.25;;
32697;SDS011;19087;51.062;3.754;2023-05-14T03:04:37;0.30;;;0.30;;
32697;SDS011;19087;51.062;3.754;2023-05-14T03:07:04;0.30;;;0.30;;
32697;SDS011;19087;51.062;3.754;2023-05-14T03:09:32;0.30;;;0.30;;
32697;SDS011;19087;51.062;3.754;2023-05-14T03:11:58;0.30;;;0.30;;
32697;SDS011;19087;51.062;3.754;2023-05-14T03:14:25;0.30;;;0.30;;
32697;SDS011;19087;51.062;3.754;2023-05-14T03:16:51;0.35;;;0.35;;
32697;SDS011;19087;51.062;3.754;2023-05-14T03:19:17;0.22;;;0.22;;
32697;SDS011;19087;51.062;3.754;2023-05-14T03:21:42;0.20;;;0.20;;
32697;SDS011;19087;51.062;3.754;2023-05-14T03:24:08;0.30;;;0.30;;
32697;SDS011;19087;51.062;3.754;2023-05-14T03:26:34;0.30;;;0.30;;
32697;SDS011;19087;51.062;3.754;2023-05-14T03:29:01;0.30;;;0.30;;
32697;SDS011;19087;51.062;3.754;2023-05-14T03:31:28;0.25;;;0.25;;
32697;SDS011;19087;51.062;3.754;2023-05-14T03:33:54;0.30;;;0.30;;
32697;SDS011;19087;51.062;3.754;2023-05-14T03:36:20;0.30;;;0.30;;
32697;SDS011;19087;51.062;3.754;2023-05-14T03:38:46;0.30;;;0.30;;
32697;SDS011;19087;51.062;3.754;2023-05-14T03:41:12;0.30;;;0.30;;
32697;SDS011;19087;51.062;3.754;2023-05-14T03:43:38;0.20;;;0.20;;
32697;SDS011;19087;51.062;3.754;2023-05-14T03:46:04;0.30;;;0.30;;
32697;SDS011;19087;51.062;3.754;2023-05-14T03:48:30;0.28;;;0.28;;
32697;SDS011;19087;51.062;3.754;2023-05-14T03:50:55;0.30;;;0.30;;
32697;SDS011;19087;51.062;3.754;2023-05-14T03:53:21;0.30;;;0.30;;
32697;SDS011;19087;51.062;3.754;2023-05-14T03:55:47;0.30;;;0.30;;
32697;SDS011;19087;51.062;3.754;2023-05-14T03:58:15;0.20;;;0.20;;
32697;SDS011;19087;51.062;3.754;2023-05-14T04:00:41;0.30;;;0.30;;
32697;SDS011;19087;51.062;3.754;2023-05-14T04:03:08;0.30;;;0.30;;
32697;SDS011;19087;51.062;3.754;2023-05-14T04:05:34;0.20;;;0.20;;
32697;SDS011;19087;51.062;3.754;2023-05-14T04:08:00;0.20;;;0.20;;
32697;SDS011;19087;51.062;3.754;2023-05-14T04:10:27;0.30;;;0.30;;
32697;SDS011;19087;51.062;3.754;2023-05-14T04:12:54;0.22;;;0.22;;
32697;SDS011;19087;51.062;3.754;2023-05-14T04:15:20;0.25;;;0.25;;
32697;SDS011;19087;51.062;3.754;2023-05-14T04:17:46;0.20;;;0.20;;
32697;SDS011;19087;51.062;3.754;2023-05-14T04:20:11;0.30;;;0.30;;
32697;SDS011;19087;51.062;3.754;2023-05-14T04:22:37;0.25;;;0.25;;
32697;SDS011;19087;51.062;3.754;2023-05-14T04:25:03;0.20;;;0.20;;
32697;SDS011;19087;51.062;3.754;2023-05-14T04:27:31;0.28;;;0.28;;
32697;SDS011;19087;51.062;3.754;2023-05-14T04:29:57;0.30;;;0.30;;
32697;SDS011;19087;51.062;3.754;2023-05-14T04:32:23;0.30;;;0.30;;
32697;SDS011;19087;51.062;3.754;2023-05-14T04:34:49;0.25;;;0.25;;
32697;SDS011;19087;51.062;3.754;2023-05-14T04:37:15;0.22;;;0.22;;
32697;SDS011;19087;51.062;3.754;2023-05-14T04:39:41;0.30;;;0.30;;
32697;SDS011;19087;51.062;3.754;2023-05-14T04:42:08;0.10;;;0.10;;
32697;SDS011;19087;51.062;3.754;2023-05-14T04:44:35;0.25;;;0.25;;
32697;SDS011;19087;51.062;3.754;2023-05-14T04:47:01;0.30;;;0.30;;
32697;SDS011;19087;51.062;3.754;2023-05-14T04:49:29;0.30;;;0.30;;
32697;SDS011;19087;51.062;3.754;2023-05-14T04:51:56;0.30;;;0.30;;
32697;SDS011;19087;51.062;3.754;2023-05-14T04:54:21;0.20;;;0.20;;
32697;SDS011;19087;51.062;3.754;2023-05-14T04:56:47;0.20;;;0.20;;
32697;SDS011;19087;51.062;3.754;2023-05-14T04:59:13;0.20;;;0.20;;
32697;SDS011;19087;51.062;3.754;2023-05-14T05:01:40;0.30;;;0.30;;
32697;SDS011;19087;51.062;3.754;2023-05-14T05:04:06;0.30;;;0.30;;
32697;SDS011;19087;51.062;3.754;2023-05-14T05:06:31;0.30;;;0.30;;
32697;SDS011;19087;51.062;3.754;2023-05-14T05:08:57;0.28;;;0.28;;
32697;SDS011;19087;51.062;3.754;2023-05-14T05:11:23;0.30;;;0.30;;
32697;SDS011;19087;51.062;3.754;2023-05-14T05:13:49;0.30;;;0.30;;
32697;SDS011;19087;51.062;3.754;2023-05-14T05:16:15;0.38;;;0.38;;
32697;SDS011;19087;51.062;3.754;2023-05-14T05:18:41;0.30;;;0.30;;
32697;SDS011;19087;51.062;3.754;2023-05-14T05:21:08;0.30;;;0.30;;
32697;SDS011;19087;51.062;3.754;2023-05-14T05:23:34;0.30;;;0.30;;
32697;SDS011;19087;51.062;3.754;2023-05-14T05:26:00;0.30;;;0.30;;
32697;SDS011;19087;51.062;3.754;2023-05-14T05:28:26;0.20;;;0.20;;
32697;SDS011;19087;51.062;3.754;2023-05-14T05:30:51;0.30;;;0.30;;
32697;SDS011;19087;51.062;3.754;2023-05-14T05:33:17;0.30;;;0.30;;
32697;SDS011;19087;51.062;3.754;2023-05-14T05:35:44;0.30;;;0.30;;
32697;SDS011;19087;51.062;3.754;2023-05-14T05:38:09;0.20;;;0.20;;
32697;SDS011;19087;51.062;3.754;2023-05-14T05:40:36;0.20;;;0.20;;
32697;SDS011;19087;51.062;3.754;2023-05-14T05:43:02;0.30;;;0.30;;
32697;SDS011;19087;51.062;3.754;2023-05-14T05:45:29;0.30;;;0.30;;
32697;SDS011;19087;51.062;3.754;2023-05-14T05:47:55;0.30;;;0.30;;
32697;SDS011;19087;51.062;3.754;2023-05-14T05:50:21;0.20;;;0.20;;
32697;SDS011;19087;51.062;3.754;2023-05-14T05:52:49;0.20;;;0.20;;
32697;SDS011;19087;51.062;3.754;2023-05-14T05:55:16;0.20;;;0.20;;
32697;SDS011;19087;51.062;3.754;2023-05-14T05:57:42;0.20;;;0.20;;
32697;SDS011;19087;51.062;3.754;2023-05-14T06:00:07;0.20;;;0.20;;
32697;SDS011;19087;51.062;3.754;2023-05-14T06:02:37;0.30;;;0.30;;
32697;SDS011;19087;51.062;3.754;2023-05-14T06:05:04;0.20;;;0.20;;
32697;SDS011;19087;51.062;3.754;2023-05-14T06:07:31;0.20;;;0.20;;
32697;SDS011;19087;51.062;3.754;2023-05-14T06:09:56;0.30;;;0.30;;
32697;SDS011;19087;51.062;3.754;2023-05-14T06:12:22;0.28;;;0.28;;
32697;SDS011;19087;51.062;3.754;2023-05-14T06:14:49;0.30;;;0.30;;
32697;SDS011;19087;51.062;3.754;2023-05-14T06:17:16;0.20;;;0.20;;
32697;SDS011;19087;51.062;3.754;2023-05-14T06:19:42;0.30;;;0.30;;
32697;SDS011;19087;51.062;3.754;2023-05-14T06:22:08;0.22;;;0.22;;
32697;SDS011;19087;51.062;3.754;2023-05-14T06:24:34;0.20;;;0.20;;
32697;SDS011;19087;51.062;3.754;2023-05-14T06:27:00;0.20;;;0.20;;
32697;SDS011;19087;51.062;3.754;2023-05-14T06:29:27;0.20;;;0.20;;
32697;SDS011;19087;51.062;3.754;2023-05-14T06:31:52;0.20;;;0.20;;
32697;SDS011;19087;51.062;3.754;2023-05-14T06:34:19;0.20;;;0.20;;
32697;SDS011;19087;51.062;3.754;2023-05-14T06:36:46;0.28;;;0.28;;
32697;SDS011;19087;51.062;3.754;2023-05-14T06:39:12;0.20;;;0.20;;
32697;SDS011;19087;51.062;3.754;2023-05-14T06:41:39;0.30;;;0.30;;
32697;SDS011;19087;51.062;3.754;2023-05-14T06:44:04;0.30;;;0.30;;
32697;SDS011;19087;51.062;3.754;2023-05-14T06:46:30;0.30;;;0.30;;
32697;SDS011;19087;51.062;3.754;2023-05-14T06:48:56;0.30;;;0.30;;
32697;SDS011;19087;51.062;3.754;2023-05-14T06:51:22;0.30;;;0.30;;
32697;SDS011;19087;51.062;3.754;2023-05-14T06:53:50;0.20;;;0.20;;
32697;SDS011;19087;51.062;3.754;2023-05-14T06:56:16;0.20;;;0.20;;
32697;SDS011;19087;51.062;3.754;2023-05-14T06:58:43;0.30;;;0.30;;
32697;SDS011;19087;51.062;3.754;2023-05-14T07:01:10;0.30;;;0.30;;
32697;SDS011;19087;51.062;3.754;2023-05-14T07:03:41;0.30;;;0.30;;
32697;SDS011;19087;51.062;3.754;2023-05-14T07:06:07;0.20;;;0.20;;
32697;SDS011;19087;51.062;3.754;2023-05-14T07:08:35;0.20;;;0.20;;
32697;SDS011;19087;51.062;3.754;2023-05-14T07:11:01;0.30;;;0.30;;
32697;SDS011;19087;51.062;3.754;2023-05-14T07:13:27;0.20;;;0.20;;
32697;SDS011;19087;51.062;3.754;2023-05-14T07:15:54;0.22;;;0.22;;
32697;SDS011;19087;51.062;3.754;2023-05-14T07:18:22;0.20;;;0.20;;
32697;SDS011;19087;51.062;3.754;2023-05-14T07:20:48;0.20;;;0.20;;
32697;SDS011;19087;51.062;3.754;2023-05-14T07:23:20;0.20;;;0.20;;
32697;SDS011;19087;51.062;3.754;2023-05-14T07:25:46;0.20;;;0.20;;
32697;SDS011;19087;51.062;3.754;2023-05-14T07:28:13;0.20;;;0.20;;
32697;SDS011;19087;51.062;3.754;2023-05-14T07:30:38;0.30;;;0.30;;
32697;SDS011;19087;51.062;3.754;2023-05-14T07:33:04;0.30;;;0.30;;
32697;SDS011;19087;51.062;3.754;2023-05-14T07:35:30;0.30;;;0.30;;
32697;SDS011;19087;51.062;3.754;2023-05-14T07:37:59;0.20;;;0.20;;
32697;SDS011;19087;51.062;3.754;2023-05-14T07:40:24;0.22;;;0.22;;
32697;SDS011;19087;51.062;3.754;2023-05-14T07:42:51;0.30;;;0.30;;
32697;SDS011;19087;51.062;3.754;2023-05-14T07:45:16;0.30;;;0.30;;
32697;SDS011;19087;51.062;3.754;2023-05-14T07:47:42;0.30;;;0.30;;
32697;SDS011;19087;51.062;3.754;2023-05-14T07:50:08;0.30;;;0.30;;
32697;SDS011;19087;51.062;3.754;2023-05-14T07:52:35;0.20;;;0.20;;
32697;SDS011;19087;51.062;3.754;2023-05-14T07:55:01;0.30;;;0.30;;
32697;SDS011;19087;51.062;3.754;2023-05-14T07:57:27;0.30;;;0.30;;
32697;SDS011;19087;51.062;3.754;2023-05-14T07:59:53;0.30;;;0.30;;
32697;SDS011;19087;51.062;3.754;2023-05-14T08:02:20;0.30;;;0.30;;
32697;SDS011;19087;51.062;3.754;2023-05-14T08:04:46;0.30;;;0.30;;
32697;SDS011;19087;51.062;3.754;2023-05-14T08:07:12;0.30;;;0.30;;
32697;SDS011;19087;51.062;3.754;2023-05-14T08:09:37;0.20;;;0.20;;
32697;SDS011;19087;51.062;3.754;2023-05-14T08:12:04;0.30;;;0.30;;
32697;SDS011;19087;51.062;3.754;2023-05-14T08:14:30;0.30;;;0.30;;
32697;SDS011;19087;51.062;3.754;2023-05-14T08:16:56;0.28;;;0.28;;
32697;SDS011;19087;51.062;3.754;2023-05-14T08:19:23;0.20;;;0.20;;
32697;SDS011;19087;51.062;3.754;2023-05-14T08:21:51;0.20;;;0.20;;
32697;SDS011;19087;51.062;3.754;2023-05-14T08:24:17;0.30;;;0.30;;
32697;SDS011;19087;51.062;3.754;2023-05-14T08:26:43;0.30;;;0.30;;
32697;SDS011;19087;51.062;3.754;2023-05-14T08:29:09;0.20;;;0.20;;
32697;SDS011;19087;51.062;3.754;2023-05-14T08:31:35;0.28;;;0.28;;
32697;SDS011;19087;51.062;3.754;2023-05-14T08:34:01;0.30;;;0.30;;
32697;SDS011;19087;51.062;3.754;2023-05-14T08:36:27;0.20;;;0.20;;
32697;SDS011;19087;51.062;3.754;2023-05-14T08:38:53;0.30;;;0.30;;
32697;SDS011;19087;51.062;3.754;2023-05-14T08:41:21;0.20;;;0.20;;
32697;SDS011;19087;51.062;3.754;2023-05-14T08:44:05;0.30;;;0.30;;
32697;SDS011;19087;51.062;3.754;2023-05-14T08:46:36;0.30;;;0.30;;
32697;SDS011;19087;51.062;3.754;2023-05-14T08:51:56;0.20;;;0.20;;
32697;SDS011;19087;51.062;3.754;2023-05-14T08:54:22;0.20;;;0.20;;
32697;SDS011;19087;51.062;3.754;2023-05-14T08:56:50;0.20;;;0.20;;
32697;SDS011;19087;51.062;3.754;2023-05-14T08:59:16;0.20;;;0.20;;
32697;SDS011;19087;51.062;3.754;2023-05-14T09:01:47;0.20;;;0.20;;
32697;SDS011;19087;51.062;3.754;2023-05-14T09:04:17;0.10;;;0.10;;
32697;SDS011;19087;51.062;3.754;2023-05-14T09:06:45;0.17;;;0.17;;
32697;SDS011;19087;51.062;3.754;2023-05-14T09:09:14;0.10;;;0.10;;
32697;SDS011;19087;51.062;3.754;2023-05-14T09:11:47;0.20;;;0.20;;
32697;SDS011;19087;51.062;3.754;2023-05-14T09:14:16;0.10;;;0.10;;
32697;SDS011;19087;51.062;3.754;2023-05-14T09:16:44;0.10;;;0.10;;
32697;SDS011;19087;51.062;3.754;2023-05-14T09:19:11;0.13;;;0.13;;
32697;SDS011;19087;51.062;3.754;2023-05-14T09:21:38;0.20;;;0.20;;
32697;SDS011;19087;51.062;3.754;2023-05-14T09:24:06;0.10;;;0.10;;
32697;SDS011;19087;51.062;3.754;2023-05-14T09:26:33;0.10;;;0.10;;
32697;SDS011;19087;51.062;3.754;2023-05-14T09:29:00;0.20;;;0.20;;
32697;SDS011;19087;51.062;3.754;2023-05-14T09:31:28;0.20;;;0.20;;
32697;SDS011;19087;51.062;3.754;2023-05-14T09:33:55;0.20;;;0.20;;
32697;SDS011;19087;51.062;3.754;2023-05-14T09:36:22;0.20;;;0.20;;
32697;SDS011;19087;51.062;3.754;2023-05-14T09:38:49;0.20;;;0.20;;
32697;SDS011;19087;51.062;3.754;2023-05-14T09:41:16;0.20;;;0.20;;
32697;SDS011;19087;51.062;3.754;2023-05-14T09:43:42;0.20;;;0.20;;
32697;SDS011;19087;51.062;3.754;2023-05-14T09:46:08;0.20;;;0.20;;
32697;SDS011;19087;51.062;3.754;2023-05-14T09:48:34;0.17;;;0.17;;
32697;SDS011;19087;51.062;3.754;2023-05-14T09:50:59;0.20;;;0.20;;
32697;SDS011;19087;51.062;3.754;2023-05-14T09:53:26;0.20;;;0.20;;
32697;SDS011;19087;51.062;3.754;2023-05-14T09:55:53;0.20;;;0.20;;
32697;SDS011;19087;51.062;3.754;2023-05-14T09:58:19;0.20;;;0.20;;
32697;SDS011;19087;51.062;3.754;2023-05-14T10:00:46;0.20;;;0.20;;
32697;SDS011;19087;51.062;3.754;2023-05-14T10:03:13;0.13;;;0.13;;
32697;SDS011;19087;51.062;3.754;2023-05-14T10:05:41;0.20;;;0.20;;
32697;SDS011;19087;51.062;3.754;2023-05-14T10:08:19;0.20;;;0.20;;
32697;SDS011;19087;51.062;3.754;2023-05-14T10:10:51;0.20;;;0.20;;
32697;SDS011;19087;51.062;3.754;2023-05-14T10:13:19;0.10;;;0.10;;
32697;SDS011;19087;51.062;3.754;2023-05-14T10:15:51;0.20;;;0.20;;
32697;SDS011;19087;51.062;3.754;2023-05-14T10:18:25;0.20;;;0.20;;
32697;SDS011;19087;51.062;3.754;2023-05-14T10:21:03;0.20;;;0.20;;
32697;SDS011;19087;51.062;3.754;2023-05-14T10:23:30;0.20;;;0.20;;
32697;SDS011;19087;51.062;3.754;2023-05-14T10:25:57;0.20;;;0.20;;
32697;SDS011;19087;51.062;3.754;2023-05-14T10:28:23;0.20;;;0.20;;
32697;SDS011;19087;51.062;3.754;2023-05-14T10:30:51;0.13;;;0.13;;
32697;SDS011;19087;51.062;3.754;2023-05-14T10:33:18;0.20;;;0.20;;
32697;SDS011;19087;51.062;3.754;2023-05-14T10:36:04;0.13;;;0.13;;
32697;SDS011;19087;51.062;3.754;2023-05-14T10:43:26;0.20;;;0.20;;
32697;SDS011;19087;51.062;3.754;2023-05-14T10:45:57;0.20;;;0.20;;
32697;SDS011;19087;51.062;3.754;2023-05-14T10:48:26;0.20;;;0.20;;
32697;SDS011;19087;51.062;3.754;2023-05-14T10:50:53;0.20;;;0.20;;
32697;SDS011;19087;51.062;3.754;2023-05-14T10:53:28;0.17;;;0.17;;
32697;SDS011;19087;51.062;3.754;2023-05-14T10:56:02;0.13;;;0.13;;
32697;SDS011;19087;51.062;3.754;2023-05-14T11:03:40;0.10;;;0.10;;
32697;SDS011;19087;51.062;3.754;2023-05-14T11:06:10;0.20;;;0.20;;
32697;SDS011;19087;51.062;3.754;2023-05-14T11:08:38;0.20;;;0.20;;
32697;SDS011;19087;51.062;3.754;2023-05-14T11:11:05;0.15;;;0.15;;
32697;SDS011;19087;51.062;3.754;2023-05-14T11:13:34;0.10;;;0.10;;
32697;SDS011;19087;51.062;3.754;2023-05-14T11:16:04;0.20;;;0.20;;
32697;SDS011;19087;51.062;3.754;2023-05-14T11:18:31;0.10;;;0.10;;
32697;SDS011;19087;51.062;3.754;2023-05-14T11:20:59;0.20;;;0.20;;
32697;SDS011;19087;51.062;3.754;2023-05-14T11:23:25;0.10;;;0.10;;
32697;SDS011;19087;51.062;3.754;2023-05-14T11:25:52;0.20;;;0.20;;
32697;SDS011;19087;51.062;3.754;2023-05-14T11:28:19;0.10;;;0.10;;
32697;SDS011;19087;51.062;3.754;2023-05-14T11:30:46;0.10;;;0.10;;
32697;SDS011;19087;51.062;3.754;2023-05-14T11:33:13;0.10;;;0.10;;
32697;SDS011;19087;51.062;3.754;2023-05-14T11:35:39;0.10;;;0.10;;
32697;SDS011;19087;51.062;3.754;2023-05-14T11:38:12;0.10;;;0.10;;
32697;SDS011;19087;51.062;3.754;2023-05-14T11:40:53;0.20;;;0.20;;
32697;SDS011;19087;51.062;3.754;2023-05-14T11:43:21;0.20;;;0.20;;
32697;SDS011;19087;51.062;3.754;2023-05-14T11:45:53;0.22;;;0.22;;
32697;SDS011;19087;51.062;3.754;2023-05-14T11:48:23;0.17;;;0.17;;
32697;SDS011;19087;51.062;3.754;2023-05-14T11:50:50;0.20;;;0.20;;
32697;SDS011;19087;51.062;3.754;2023-05-14T11:53:28;0.20;;;0.20;;
32697;SDS011;19087;51.062;3.754;2023-05-14T11:55:55;0.20;;;0.20;;
32697;SDS011;19087;51.062;3.754;2023-05-14T11:58:26;0.20;;;0.20;;
32697;SDS011;19087;51.062;3.754;2023-05-14T12:00:52;0.10;;;0.10;;
32697;SDS011;19087;51.062;3.754;2023-05-14T12:03:20;0.10;;;0.10;;
32697;SDS011;19087;51.062;3.754;2023-05-14T12:06:00;0.20;;;0.20;;
32697;SDS011;19087;51.062;3.754;2023-05-14T12:08:31;0.17;;;0.17;;
32697;SDS011;19087;51.062;3.754;2023-05-14T12:10:59;0.20;;;0.20;;
32697;SDS011;19087;51.062;3.754;2023-05-14T12:13:28;0.20;;;0.20;;
32697;SDS011;19087;51.062;3.754;2023-05-14T12:15:57;0.20;;;0.20;;
32697;SDS011;19087;51.062;3.754;2023-05-14T12:18:26;0.20;;;0.20;;
32697;SDS011;19087;51.062;3.754;2023-05-14T12:20:53;0.20;;;0.20;;
32697;SDS011;19087;51.062;3.754;2023-05-14T12:23:26;0.10;;;0.10;;
32697;SDS011;19087;51.062;3.754;2023-05-14T12:25:54;0.20;;;0.20;;
32697;SDS011;19087;51.062;3.754;2023-05-14T12:28:21;0.20;;;0.20;;
32697;SDS011;19087;51.062;3.754;2023-05-14T12:30:47;0.20;;;0.20;;
32697;SDS011;19087;51.062;3.754;2023-05-14T12:33:25;0.20;;;0.20;;
32697;SDS011;19087;51.062;3.754;2023-05-14T12:39:13;0.20;;;0.20;;
32697;SDS011;19087;51.062;3.754;2023-05-14T12:41:39;0.17;;;0.17;;
32697;SDS011;19087;51.062;3.754;2023-05-14T12:44:05;0.10;;;0.10;;
32697;SDS011;19087;51.062;3.754;2023-05-14T12:46:34;0.10;;;0.10;;
32697;SDS011;19087;51.062;3.754;2023-05-14T12:49:01;0.10;;;0.10;;
32697;SDS011;19087;51.062;3.754;2023-05-14T12:51:30;0.10;;;0.10;;
32697;SDS011;19087;51.062;3.754;2023-05-14T12:53:55;0.10;;;0.10;;
32697;SDS011;19087;51.062;3.754;2023-05-14T12:56:21;0.20;;;0.20;;
32697;SDS011;19087;51.062;3.754;2023-05-14T12:58:52;0.17;;;0.17;;
32697;SDS011;19087;51.062;3.754;2023-05-14T13:01:23;0.10;;;0.10;;
32697;SDS011;19087;51.062;3.754;2023-05-14T13:03:49;0.20;;;0.20;;
32697;SDS011;19087;51.062;3.754;2023-05-14T13:06:16;0.20;;;0.20;;
32697;SDS011;19087;51.062;3.754;2023-05-14T13:08:43;0.20;;;0.20;;
32697;SDS011;19087;51.062;3.754;2023-05-14T13:11:09;0.10;;;0.10;;
32697;SDS011;19087;51.062;3.754;2023-05-14T13:13:35;0.17;;;0.17;;
32697;SDS011;19087;51.062;3.754;2023-05-14T13:16:02;0.10;;;0.10;;
32697;SDS011;19087;51.062;3.754;2023-05-14T13:18:28;0.20;;;0.20;;
32697;SDS011;19087;51.062;3.754;2023-05-14T13:20:57;0.15;;;0.15;;
32697;SDS011;19087;51.062;3.754;2023-05-14T13:23:24;0.10;;;0.10;;
32697;SDS011;19087;51.062;3.754;2023-05-14T13:25:50;0.10;;;0.10;;
32697;SDS011;19087;51.062;3.754;2023-05-14T13:28:17;0.20;;;0.20;;
32697;SDS011;19087;51.062;3.754;2023-05-14T13:31:01;0.20;;;0.20;;
32697;SDS011;19087;51.062;3.754;2023-05-14T13:33:32;0.10;;;0.10;;
32697;SDS011;19087;51.062;3.754;2023-05-14T13:36:00;0.10;;;0.10;;
32697;SDS011;19087;51.062;3.754;2023-05-14T13:38:27;0.10;;;0.10;;
32697;SDS011;19087;51.062;3.754;2023-05-14T13:40:53;0.10;;;0.10;;
32697;SDS011;19087;51.062;3.754;2023-05-14T13:43:22;0.10;;;0.10;;
32697;SDS011;19087;51.062;3.754;2023-05-14T13:45:48;0.10;;;0.10;;
32697;SDS011;19087;51.062;3.754;2023-05-14T13:48:15;0.20;;;0.20;;
32697;SDS011;19087;51.062;3.754;2023-05-14T13:50:41;0.10;;;0.10;;
32697;SDS011;19087;51.062;3.754;2023-05-14T13:53:10;0.10;;;0.10;;
32697;SDS011;19087;51.062;3.754;2023-05-14T13:55:35;0.10;;;0.10;;
32697;SDS011;19087;51.062;3.754;2023-05-14T13:58:02;0.10;;;0.10;;
32697;SDS011;19087;51.062;3.754;2023-05-14T14:00:28;0.10;;;0.10;;
32697;SDS011;19087;51.062;3.754;2023-05-14T14:02:58;0.10;;;0.10;;
32697;SDS011;19087;51.062;3.754;2023-05-14T14:05:29;0.10;;;0.10;;
32697;SDS011;19087;51.062;3.754;2023-05-14T14:07:56;0.20;;;0.20;;
32697;SDS011;19087;51.062;3.754;2023-05-14T14:10:26;0.10;;;0.10;;
32697;SDS011;19087;51.062;3.754;2023-05-14T14:12:53;0.10;;;0.10;;
32697;SDS011;19087;51.062;3.754;2023-05-14T14:15:19;0.20;;;0.20;;
32697;SDS011;19087;51.062;3.754;2023-05-14T14:17:45;0.10;;;0.10;;
32697;SDS011;19087;51.062;3.754;2023-05-14T14:20:12;0.20;;;0.20;;
32697;SDS011;19087;51.062;3.754;2023-05-14T14:22:39;0.10;;;0.10;;
32697;SDS011;19087;51.062;3.754;2023-05-14T14:25:06;0.10;;;0.10;;
32697;SDS011;19087;51.062;3.754;2023-05-14T14:27:33;0.20;;;0.20;;
32697;SDS011;19087;51.062;3.754;2023-05-14T14:30:09;0.20;;;0.20;;
32697;SDS011;19087;51.062;3.754;2023-05-14T14:32:43;0.17;;;0.17;;
32697;SDS011;19087;51.062;3.754;2023-05-14T14:35:12;0.20;;;0.20;;
32697;SDS011;19087;51.062;3.754;2023-05-14T14:37:42;0.20;;;0.20;;
32697;SDS011;19087;51.062;3.754;2023-05-14T14:40:13;0.20;;;0.20;;
32697;SDS011;19087;51.062;3.754;2023-05-14T14:42:40;0.17;;;0.17;;
32697;SDS011;19087;51.062;3.754;2023-05-14T14:45:07;0.20;;;0.20;;
32697;SDS011;19087;51.062;3.754;2023-05-14T14:47:33;0.20;;;0.20;;
32697;SDS011;19087;51.062;3.754;2023-05-14T14:49:59;0.20;;;0.20;;
32697;SDS011;19087;51.062;3.754;2023-05-14T14:52:25;0.20;;;0.20;;
32697;SDS011;19087;51.062;3.754;2023-05-14T14:54:52;0.20;;;0.20;;
32697;SDS011;19087;51.062;3.754;2023-05-14T14:57:18;0.20;;;0.20;;
32697;SDS011;19087;51.062;3.754;2023-05-14T14:59:44;0.20;;;0.20;;
32697;SDS011;19087;51.062;3.754;2023-05-14T15:02:10;0.20;;;0.20;;
32697;SDS011;19087;51.062;3.754;2023-05-14T15:04:37;0.20;;;0.20;;
32697;SDS011;19087;51.062;3.754;2023-05-14T15:07:03;0.20;;;0.20;;
32697;SDS011;19087;51.062;3.754;2023-05-14T15:09:30;0.20;;;0.20;;
32697;SDS011;19087;51.062;3.754;2023-05-14T15:11:56;0.20;;;0.20;;
32697;SDS011;19087;51.062;3.754;2023-05-14T15:14:22;0.20;;;0.20;;